Terminal Aerodrome Forecast
Issued by NWS

Current Version | Previous Version | Text Only | Print | Product List | Glossary Off
Versions: 1 2 3 4 5 6 7 8 9 10 11 12 13 14 15 16 17 18 19 20 21 22 23 24

837
FTUS41 KILN 051133
TAFLUK
TAF
KLUK 051133Z 0512/0612 27006KT P6SM OVC015
     FM051300 20004KT P6SM BKN018
     FM051800 VRB03KT P6SM SCT020 BKN250
     FM052100 11004KT P6SM BKN250
     FM060200 11008KT P6SM BKN080
     FM061000 09008KT P6SM -RA BKN025=

USA.gov is the U.S. government's official web portal to all federal, state and local government web resources and services.